Time;durP1;ratioP1;P1;durP2;ratioP2;P2;SDS_P1;SDS_P2;PMS_P1;PMS_P2;Temp;Humidity;BMP_temperature;BMP_pressure;BME280_temperature;BME280_humidity;BME280_pressure;Samples;Min_cycle;Max_cycle;Signal;HPM_P1;HPM_P2
2022/05/22 00:02:19;;;;;;;6.27;2.07;;;;;;;;;;5030250;28;20053;-63
2022/05/22 00:04:46;;;;;;;7.25;2.03;;;;;;;;;;5029664;28;20315;-64
2022/05/22 00:07:12;;;;;;;7.65;1.67;;;;;;;;;;5005062;28;20053;-63
2022/05/22 00:09:39;;;;;;;6.95;1.63;;;;;;;;;;5009115;28;20054;-64
2022/05/22 00:12:07;;;;;;;6.07;1.58;;;;;;;;;;5004633;28;20080;-63
2022/05/22 00:14:33;;;;;;;3.30;1.48;;;;;;;;;;5009660;28;20062;-63
2022/05/22 00:17:02;;;;;;;4.50;1.35;;;;;;;;;;5017163;28;20049;-63
2022/05/22 00:19:31;;;;;;;4.78;1.45;;;;;;;;;;5028817;28;20045;-64
2022/05/22 00:21:58;;;;;;;5.50;1.90;;;;;;;;;;5012519;28;20050;-63
2022/05/22 00:24:26;;;;;;;4.53;1.52;;;;;;;;;;4993542;28;20058;-63
2022/05/22 00:26:53;;;;;;;4.00;1.53;;;;;;;;;;5003932;28;20060;-64
2022/05/22 00:29:20;;;;;;;3.92;1.48;;;;;;;;;;5029283;28;20059;-64
2022/05/22 00:31:47;;;;;;;3.50;1.40;;;;;;;;;;5016249;28;20152;-64
2022/05/22 00:34:15;;;;;;;7.93;1.83;;;;;;;;;;5009021;28;20045;-64
2022/05/22 00:36:42;;;;;;;6.65;1.50;;;;;;;;;;5004380;28;20060;-64
2022/05/22 00:39:11;;;;;;;4.88;1.42;;;;;;;;;;5008941;28;20050;-64
2022/05/22 00:41:38;;;;;;;3.95;1.40;;;;;;;;;;5003604;28;20053;-64
2022/05/22 00:44:05;;;;;;;4.95;1.42;;;;;;;;;;5007653;28;20081;-64
2022/05/22 00:46:32;;;;;;;3.28;1.58;;;;;;;;;;5005058;28;20115;-63
2022/05/22 00:49:01;;;;;;;5.75;1.80;;;;;;;;;;5027558;28;20055;-64
2022/05/22 00:51:32;;;;;;;7.28;1.85;;;;;;;;;;5028317;28;20049;-63
2022/05/22 00:54:02;;;;;;;7.97;1.80;;;;;;;;;;5005388;28;20045;-63
2022/05/22 00:56:34;;;;;;;5.20;1.52;;;;;;;;;;5008820;28;20041;-63
2022/05/22 00:59:01;;;;;;;4.80;1.40;;;;;;;;;;5003664;28;20061;-63
2022/05/22 01:01:28;;;;;;;3.70;1.42;;;;;;;;;;5008859;28;20066;-63
2022/05/22 01:03:55;;;;;;;5.93;1.63;;;;;;;;;;5017553;28;20100;-63
2022/05/22 01:06:24;;;;;;;4.18;1.55;;;;;;;;;;5028446;28;20049;-63
2022/05/22 01:08:52;;;;;;;9.05;2.03;;;;;;;;;;5021997;28;20053;-63
2022/05/22 01:11:21;;;;;;;5.32;1.75;;;;;;;;;;5018782;28;20140;-63
2022/05/22 01:13:52;;;;;;;8.05;1.85;;;;;;;;;;5013051;28;20075;-64
2022/05/22 01:16:19;;;;;;;3.00;1.35;;;;;;;;;;5028279;28;20106;-63
2022/05/22 01:18:46;;;;;;;3.38;1.50;;;;;;;;;;5013508;28;20050;-63
2022/05/22 01:21:14;;;;;;;4.25;1.45;;;;;;;;;;5006766;28;20115;-63
2022/05/22 01:23:42;;;;;;;6.28;1.40;;;;;;;;;;5011491;28;20073;-64
2022/05/22 01:26:10;;;;;;;8.20;1.70;;;;;;;;;;5027931;28;20107;-63
2022/05/22 01:28:36;;;;;;;11.43;1.55;;;;;;;;;;5009369;28;20316;-64
2022/05/22 01:31:03;;;;;;;3.67;1.65;;;;;;;;;;5008432;28;20137;-67
2022/05/22 01:33:29;;;;;;;14.80;1.95;;;;;;;;;;5003762;28;20112;-65
2022/05/22 01:35:56;;;;;;;3.35;1.70;;;;;;;;;;5027783;28;20115;-63
2022/05/22 01:38:23;;;;;;;3.72;1.58;;;;;;;;;;5027634;28;20119;-63
2022/05/22 01:40:51;;;;;;;3.72;1.52;;;;;;;;;;5022566;28;20045;-64
2022/05/22 01:43:17;;;;;;;4.55;1.50;;;;;;;;;;5014051;28;20058;-63
2022/05/22 01:45:44;;;;;;;3.60;1.55;;;;;;;;;;5003545;28;20056;-63
2022/05/22 01:48:11;;;;;;;3.88;1.40;;;;;;;;;;4994885;28;20141;-63
2022/05/22 01:50:38;;;;;;;2.70;1.42;;;;;;;;;;4983319;28;20119;-63
2022/05/22 01:53:05;;;;;;;3.28;1.48;;;;;;;;;;4988546;28;20054;-64
2022/05/22 01:55:31;;;;;;;4.43;1.38;;;;;;;;;;4993370;28;20056;-63
2022/05/22 01:57:59;;;;;;;8.40;1.45;;;;;;;;;;5007600;28;20054;-63
2022/05/22 02:00:26;;;;;;;2.92;1.40;;;;;;;;;;5006463;28;20062;-64
2022/05/22 02:02:54;;;;;;;3.72;1.52;;;;;;;;;;4976760;28;20058;-63
2022/05/22 02:05:20;;;;;;;4.47;1.50;;;;;;;;;;4982022;28;20122;-63
2022/05/22 02:10:31;;;;;;;9.40;1.50;;;;;;;;;;4979955;28;20074;-63
2022/05/22 02:12:58;;;;;;;6.95;1.50;;;;;;;;;;4986975;28;20078;-63
2022/05/22 02:15:26;;;;;;;3.13;1.45;;;;;;;;;;4982234;28;20054;-63
2022/05/22 02:17:53;;;;;;;5.70;1.52;;;;;;;;;;4988249;28;20041;-63
2022/05/22 02:20:20;;;;;;;3.70;1.48;;;;;;;;;;4981792;28;20053;-64
2022/05/22 02:22:47;;;;;;;3.25;1.38;;;;;;;;;;4986866;28;20082;-64
2022/05/22 02:25:15;;;;;;;5.90;1.48;;;;;;;;;;4986686;28;20155;-64
2022/05/22 02:27:42;;;;;;;4.78;1.70;;;;;;;;;;4981540;28;20050;-64
2022/05/22 02:30:10;;;;;;;3.65;1.60;;;;;;;;;;4987356;28;20050;-64
2022/05/22 02:32:38;;;;;;;3.38;1.23;;;;;;;;;;4979684;28;20054;-64
2022/05/22 02:35:05;;;;;;;3.92;1.60;;;;;;;;;;4985982;28;20051;-64
2022/05/22 02:37:31;;;;;;;4.75;1.77;;;;;;;;;;4981944;28;20062;-64
2022/05/22 02:39:58;;;;;;;4.75;1.40;;;;;;;;;;4986716;28;20109;-64
2022/05/22 02:42:25;;;;;;;2.63;1.58;;;;;;;;;;4980933;28;20181;-64
2022/05/22 02:44:52;;;;;;;3.97;1.63;;;;;;;;;;4985153;28;20061;-64
2022/05/22 02:47:18;;;;;;;5.18;1.67;;;;;;;;;;4986504;28;20058;-64
2022/05/22 02:49:46;;;;;;;4.15;1.50;;;;;;;;;;5004220;28;20291;-64
2022/05/22 02:52:13;;;;;;;5.80;1.98;;;;;;;;;;5001551;28;20046;-64
2022/05/22 02:54:39;;;;;;;3.35;1.60;;;;;;;;;;5006319;28;20046;-64
2022/05/22 02:57:06;;;;;;;5.30;2.03;;;;;;;;;;5000504;28;20062;-65
2022/05/22 02:59:33;;;;;;;3.42;1.50;;;;;;;;;;5006067;28;20050;-64
2022/05/22 03:02:09;;;;;;;5.97;1.73;;;;;;;;;;5007992;28;20061;-65
2022/05/22 03:04:36;;;;;;;4.03;1.98;;;;;;;;;;5006927;28;20058;-64
2022/05/22 03:07:04;;;;;;;3.47;1.52;;;;;;;;;;5007319;28;20120;-64
2022/05/22 03:09:31;;;;;;;;;;;;;;;;;;5007885;28;20064;-64
2022/05/22 03:11:57;;;;;;;3.95;1.40;;;;;;;;;;5007477;28;19984;-64
2022/05/22 03:14:24;;;;;;;4.72;1.50;;;;;;;;;;5008645;28;20057;-64
2022/05/22 03:16:51;;;;;;;2.35;1.30;;;;;;;;;;5011540;28;20066;-64
2022/05/22 03:19:18;;;;;;;3.50;1.38;;;;;;;;;;5010873;28;20092;-64
2022/05/22 03:21:44;;;;;;;5.13;1.33;;;;;;;;;;5011007;28;20104;-65
2022/05/22 03:24:12;;;;;;;3.72;1.60;;;;;;;;;;5010648;28;20053;-65
2022/05/22 03:26:39;;;;;;;4.15;1.60;;;;;;;;;;5011539;28;20132;-65
2022/05/22 03:29:06;;;;;;;3.05;1.60;;;;;;;;;;5011136;28;20077;-64
2022/05/22 03:31:33;;;;;;;2.47;1.30;;;;;;;;;;5010529;28;20073;-64
2022/05/22 03:33:59;;;;;;;5.05;1.67;;;;;;;;;;5010537;28;20060;-64
2022/05/22 03:36:27;;;;;;;4.03;1.50;;;;;;;;;;5009770;28;20066;-65
2022/05/22 03:38:54;;;;;;;3.45;1.50;;;;;;;;;;5010765;28;20092;-64
2022/05/22 03:41:23;;;;;;;3.15;1.60;;;;;;;;;;5009858;28;20064;-64
2022/05/22 03:43:51;;;;;;;4.50;1.38;;;;;;;;;;5010285;28;20120;-64
2022/05/22 03:46:17;;;;;;;4.45;1.50;;;;;;;;;;5010261;28;20124;-64
2022/05/22 03:48:46;;;;;;;5.72;1.63;;;;;;;;;;4993554;28;20348;-65
2022/05/22 03:51:12;;;;;;;;;;;;;;;;;;4991732;28;20116;-64
2022/05/22 03:53:39;;;;;;;4.32;1.55;;;;;;;;;;4990734;28;19925;-64
2022/05/22 03:56:10;;;;;;;4.45;1.67;;;;;;;;;;4991637;28;20062;-64
2022/05/22 03:58:39;;;;;;;5.45;1.60;;;;;;;;;;4990242;28;20077;-64
2022/05/22 04:01:06;;;;;;;5.53;1.80;;;;;;;;;;4989762;28;20054;-64
2022/05/22 04:03:34;;;;;;;3.70;1.65;;;;;;;;;;4989769;28;20055;-65
2022/05/22 04:06:02;;;;;;;3.75;1.63;;;;;;;;;;4989451;28;20054;-64
2022/05/22 04:08:28;;;;;;;3.43;1.53;;;;;;;;;;4989735;28;20054;-65
2022/05/22 04:10:55;;;;;;;4.53;1.63;;;;;;;;;;4990367;28;20146;-65
2022/05/22 04:13:22;;;;;;;3.80;1.50;;;;;;;;;;4989512;28;20105;-65
2022/05/22 04:15:50;;;;;;;4.45;1.42;;;;;;;;;;4989756;28;20058;-64
2022/05/22 04:18:20;;;;;;;6.15;1.70;;;;;;;;;;4989680;28;20058;-65
2022/05/22 04:20:47;;;;;;;6.28;1.80;;;;;;;;;;4989960;28;20057;-65
2022/05/22 04:25:59;;;;;;;4.43;1.65;;;;;;;;;;4988279;28;20137;-64
2022/05/22 04:28:26;;;;;;;4.53;1.57;;;;;;;;;;4989761;28;20058;-65
2022/05/22 04:30:55;;;;;;;4.00;1.88;;;;;;;;;;4989328;28;20329;-65
2022/05/22 04:33:21;;;;;;;3.42;1.50;;;;;;;;;;4989245;28;20074;-65
2022/05/22 04:35:48;;;;;;;3.97;1.88;;;;;;;;;;4989591;28;20058;-65
2022/05/22 04:38:15;;;;;;;3.88;1.80;;;;;;;;;;4990037;28;20066;-64
2022/05/22 04:40:42;;;;;;;4.07;1.60;;;;;;;;;;4989042;28;20042;-65
2022/05/22 04:43:09;;;;;;;4.20;1.60;;;;;;;;;;4989507;28;20058;-64
2022/05/22 04:45:36;;;;;;;3.35;1.58;;;;;;;;;;4989422;28;20054;-65
2022/05/22 04:48:04;;;;;;;5.55;1.70;;;;;;;;;;4989674;28;20061;-65
2022/05/22 04:50:32;;;;;;;10.77;2.10;;;;;;;;;;4989646;28;20046;-65
2022/05/22 04:52:58;;;;;;;3.33;1.52;;;;;;;;;;4989624;28;20062;-64
2022/05/22 04:55:25;;;;;;;3.78;1.48;;;;;;;;;;4989094;28;20047;-65
2022/05/22 04:57:52;;;;;;;3.72;1.70;;;;;;;;;;4990061;28;20046;-65
2022/05/22 05:00:19;;;;;;;5.05;1.70;;;;;;;;;;4989706;28;20038;-63
2022/05/22 05:02:45;;;;;;;6.60;2.58;;;;;;;;;;5005526;23;20137;-63
2022/05/22 05:05:13;;;;;;;4.03;1.65;;;;;;;;;;5013156;28;20159;-64
2022/05/22 05:07:41;;;;;;;6.75;2.28;;;;;;;;;;5020587;28;20064;-64
2022/05/22 05:10:08;;;;;;;7.20;2.20;;;;;;;;;;5032956;28;20053;-64
2022/05/22 05:12:38;;;;;;;4.47;1.63;;;;;;;;;;5047719;28;20041;-64
2022/05/22 05:15:05;;;;;;;5.10;1.70;;;;;;;;;;5022734;28;20047;-64
2022/05/22 05:17:31;;;;;;;2.67;1.38;;;;;;;;;;5029092;28;20066;-64
2022/05/22 05:19:58;;;;;;;4.38;1.70;;;;;;;;;;5021551;28;20096;-65
2022/05/22 05:22:26;;;;;;;3.47;1.48;;;;;;;;;;5028136;28;20077;-65
2022/05/22 05:24:52;;;;;;;4.38;1.75;;;;;;;;;;5010502;28;20139;-64
2022/05/22 05:27:19;;;;;;;6.00;1.70;;;;;;;;;;5015556;28;20068;-64
2022/05/22 05:29:46;;;;;;;6.65;1.65;;;;;;;;;;5006052;28;20499;-64
2022/05/22 05:32:12;;;;;;;7.32;1.77;;;;;;;;;;5024580;28;20084;-64
2022/05/22 05:34:39;;;;;;;5.75;2.53;;;;;;;;;;5027268;28;20073;-65
2022/05/22 05:37:06;;;;;;;9.05;3.30;;;;;;;;;;5020937;28;20135;-65
2022/05/22 05:39:35;;;;;;;8.55;3.42;;;;;;;;;;5026779;28;20054;-64
2022/05/22 05:42:01;;;;;;;8.23;3.17;;;;;;;;;;5021315;28;20124;-65
2022/05/22 05:44:28;;;;;;;12.32;2.78;;;;;;;;;;5026888;28;20061;-65
2022/05/22 05:46:55;;;;;;;12.00;3.30;;;;;;;;;;5021775;28;20160;-65
2022/05/22 05:49:22;;;;;;;5.75;2.65;;;;;;;;;;5028061;28;20139;-64
2022/05/22 05:51:48;;;;;;;4.18;1.88;;;;;;;;;;5026453;28;20056;-64
2022/05/22 05:54:15;;;;;;;8.27;3.08;;;;;;;;;;5021095;28;20065;-64
2022/05/22 05:56:43;;;;;;;4.88;1.70;;;;;;;;;;5027235;28;20057;-64
2022/05/22 05:59:09;;;;;;;3.08;1.45;;;;;;;;;;5015543;28;20057;-65
2022/05/22 06:01:36;;;;;;;6.13;2.28;;;;;;;;;;5029479;28;20064;-64
2022/05/22 06:04:03;;;;;;;5.40;2.13;;;;;;;;;;5024830;28;20099;-64
2022/05/22 06:06:31;;;;;;;4.82;2.20;;;;;;;;;;5030856;28;20104;-64
2022/05/22 06:08:59;;;;;;;4.68;1.77;;;;;;;;;;5027689;28;20059;-64
2022/05/22 06:11:25;;;;;;;6.32;1.90;;;;;;;;;;5027526;28;20049;-64
2022/05/22 06:13:53;;;;;;;9.25;1.80;;;;;;;;;;5031461;28;20057;-65
2022/05/22 06:16:20;;;;;;;7.88;1.98;;;;;;;;;;5024876;28;20048;-64
2022/05/22 06:18:47;;;;;;;5.50;2.00;;;;;;;;;;5047467;28;20053;-64
2022/05/22 06:21:15;;;;;;;4.85;1.90;;;;;;;;;;5023700;28;20095;-64
2022/05/22 06:23:41;;;;;;;4.45;1.75;;;;;;;;;;5032165;28;20110;-64
2022/05/22 06:26:10;;;;;;;4.55;1.67;;;;;;;;;;5021952;28;20131;-64
2022/05/22 06:28:36;;;;;;;6.28;2.28;;;;;;;;;;5026498;28;20107;-65
2022/05/22 06:31:05;;;;;;;8.63;2.90;;;;;;;;;;5020345;28;20061;-65
2022/05/22 06:33:32;;;;;;;5.13;1.70;;;;;;;;;;5026481;28;20103;-64
2022/05/22 06:35:59;;;;;;;9.35;2.65;;;;;;;;;;5020580;28;20049;-64
2022/05/22 06:41:10;;;;;;;6.82;1.80;;;;;;;;;;5021817;28;20110;-65
2022/05/22 06:43:37;;;;;;;13.00;3.10;;;;;;;;;;5043465;28;20079;-65
2022/05/22 06:46:05;;;;;;;9.63;2.35;;;;;;;;;;5021872;28;20056;-65
2022/05/22 06:48:32;;;;;;;4.00;1.70;;;;;;;;;;5041899;28;20076;-65
2022/05/22 06:50:58;;;;;;;4.68;1.70;;;;;;;;;;5043887;28;20061;-65
2022/05/22 06:53:25;;;;;;;6.70;1.70;;;;;;;;;;5025208;28;20053;-65
2022/05/22 06:55:51;;;;;;;6.32;1.80;;;;;;;;;;5031126;28;20118;-65
2022/05/22 06:58:18;;;;;;;6.60;1.70;;;;;;;;;;5026122;28;20067;-65
2022/05/22 07:00:44;;;;;;;14.25;2.83;;;;;;;;;;5030440;28;20053;-65
2022/05/22 07:03:13;;;;;;;8.07;1.70;;;;;;;;;;5023206;28;20049;-65
2022/05/22 07:05:39;;;;;;;4.07;1.88;;;;;;;;;;5019018;28;20110;-65
2022/05/22 07:08:06;;;;;;;7.72;1.90;;;;;;;;;;5022655;28;20119;-65
2022/05/22 07:13:18;;;;;;;7.13;1.88;;;;;;;;;;5020250;28;20053;-65
2022/05/22 07:15:44;;;;;;;4.57;1.98;;;;;;;;;;5030688;28;20045;-65
2022/05/22 07:18:13;;;;;;;6.10;1.92;;;;;;;;;;5027698;28;20052;-65
2022/05/22 07:20:39;;;;;;;12.70;4.72;;;;;;;;;;5026971;28;20060;-65
2022/05/22 07:23:06;;;;;;;5.18;2.63;;;;;;;;;;5049754;28;20049;-65
2022/05/22 07:25:32;;;;;;;5.50;2.17;;;;;;;;;;5035362;28;20047;-65
2022/05/22 07:28:01;;;;;;;8.30;2.53;;;;;;;;;;5046926;28;20053;-65
2022/05/22 07:30:28;;;;;;;4.60;1.73;;;;;;;;;;5019122;28;20083;-65
2022/05/22 07:32:55;;;;;;;7.10;2.33;;;;;;;;;;5030191;28;20080;-65
2022/05/22 07:35:23;;;;;;;7.15;2.03;;;;;;;;;;5022647;28;20057;-64
2022/05/22 07:37:51;;;;;;;9.20;2.78;;;;;;;;;;5045742;28;20056;-65
2022/05/22 07:40:17;;;;;;;7.35;1.67;;;;;;;;;;5031132;28;20140;-65
2022/05/22 07:42:44;;;;;;;5.05;1.70;;;;;;;;;;5020935;28;20056;-65
2022/05/22 07:45:12;;;;;;;4.40;1.67;;;;;;;;;;5047144;28;20053;-65
2022/05/22 07:47:40;;;;;;;;;;;;;;;;;;5022032;28;20122;-65
2022/05/22 07:50:20;;;;;;;6.43;1.77;;;;;;;;;;5031988;28;19924;-65
2022/05/22 07:52:49;;;;;;;6.40;1.65;;;;;;;;;;5022793;28;20132;-65
2022/05/22 07:55:18;;;;;;;5.43;1.50;;;;;;;;;;5030518;28;20091;-65
2022/05/22 07:57:47;;;;;;;5.88;1.92;;;;;;;;;;5024330;28;20072;-65
2022/05/22 08:00:13;;;;;;;;;;;;;;;;;;5046092;28;20049;-65
2022/05/22 08:02:40;;;;;;;5.13;1.73;;;;;;;;;;5009330;28;20011;-65
2022/05/22 08:05:08;;;;;;;4.47;1.52;;;;;;;;;;4994838;28;20057;-65
2022/05/22 08:07:36;;;;;;;5.03;1.80;;;;;;;;;;5004498;28;20066;-65
2022/05/22 08:10:04;;;;;;;9.18;1.70;;;;;;;;;;4996177;28;20153;-65
2022/05/22 08:12:36;;;;;;;5.43;1.77;;;;;;;;;;5007997;28;20054;-65
2022/05/22 08:15:02;;;;;;;2.42;1.17;;;;;;;;;;4996553;28;20144;-65
2022/05/22 08:17:35;;;;;;;9.40;1.90;;;;;;;;;;5005138;28;20121;-64
2022/05/22 08:20:02;;;;;;;6.95;1.48;;;;;;;;;;4996265;28;20065;-65
2022/05/22 08:22:28;;;;;;;7.85;2.10;;;;;;;;;;5005483;28;20061;-65
2022/05/22 08:24:55;;;;;;;6.28;1.35;;;;;;;;;;5006379;28;20050;-65
2022/05/22 08:27:23;;;;;;;5.40;1.55;;;;;;;;;;4997423;28;20058;-65
2022/05/22 08:29:50;;;;;;;4.22;1.42;;;;;;;;;;5004806;28;20053;-65
2022/05/22 08:32:16;;;;;;;6.90;1.70;;;;;;;;;;4996015;28;20054;-64
2022/05/22 08:34:43;;;;;;;5.40;1.38;;;;;;;;;;5004619;28;20112;-65
2022/05/22 08:37:10;;;;;;;6.68;1.50;;;;;;;;;;4997564;28;20062;-65
2022/05/22 08:39:36;;;;;;;3.88;1.20;;;;;;;;;;5004616;28;20054;-65
2022/05/22 08:42:07;;;;;;;5.93;1.48;;;;;;;;;;5001177;28;20112;-65
2022/05/22 08:44:35;;;;;;;4.50;1.52;;;;;;;;;;5004164;28;20050;-66
2022/05/22 08:47:06;;;;;;;8.55;1.58;;;;;;;;;;5004754;28;20116;-65
2022/05/22 08:49:36;;;;;;;8.65;1.65;;;;;;;;;;4979237;28;20131;-65
2022/05/22 08:52:04;;;;;;;9.98;2.00;;;;;;;;;;5005434;28;20086;-65
2022/05/22 08:54:33;;;;;;;3.47;1.20;;;;;;;;;;4996712;28;20062;-65
2022/05/22 08:59:47;;;;;;;5.72;1.50;;;;;;;;;;4996022;28;20065;-65
2022/05/22 09:02:23;;;;;;;5.75;1.30;;;;;;;;;;5001610;28;20046;-66
2022/05/22 09:04:52;;;;;;;7.13;1.20;;;;;;;;;;4996133;28;20062;-65
2022/05/22 09:07:20;;;;;;;7.78;1.10;;;;;;;;;;5005692;28;20144;-64
2022/05/22 09:09:49;;;;;;;4.43;1.33;;;;;;;;;;5005884;28;20054;-64
2022/05/22 09:12:30;;;;;;;4.85;1.27;;;;;;;;;;4996416;28;20058;-67
2022/05/22 09:15:02;;;;;;;6.93;1.80;;;;;;;;;;5003223;28;20052;-66
2022/05/22 09:17:32;;;;;;;8.88;1.60;;;;;;;;;;5002552;28;20056;-67
2022/05/22 09:20:03;;;;;;;8.32;1.30;;;;;;;;;;4991959;28;20073;-65
2022/05/22 09:22:32;;;;;;;4.28;1.25;;;;;;;;;;5002010;28;20060;-66
2022/05/22 09:25:07;;;;;;;3.72;1.17;;;;;;;;;;5008428;28;20081;-65
2022/05/22 09:27:42;;;;;;;5.45;1.30;;;;;;;;;;5002616;28;20054;-65
2022/05/22 09:30:13;;;;;;;4.05;1.58;;;;;;;;;;5007273;28;20121;-66
2022/05/22 09:32:45;;;;;;;4.60;1.48;;;;;;;;;;5003610;28;20053;-64
2022/05/22 09:35:16;;;;;;;3.40;1.08;;;;;;;;;;5006917;28;20060;-66
2022/05/22 09:37:48;;;;;;;6.65;1.33;;;;;;;;;;5007233;28;20045;-66
2022/05/22 09:40:23;;;;;;;7.63;1.52;;;;;;;;;;5001323;28;20064;-67
2022/05/22 09:43:08;;;;;;;5.30;1.20;;;;;;;;;;5007810;28;20062;-67
2022/05/22 09:45:44;;;;;;;2.63;0.95;;;;;;;;;;4964063;28;20058;-67
2022/05/22 09:48:31;;;;;;;3.65;1.13;;;;;;;;;;5007425;28;22357;-67
2022/05/22 09:51:01;;;;;;;3.50;1.08;;;;;;;;;;4997582;28;20053;-68
2022/05/22 09:53:34;;;;;;;5.05;1.10;;;;;;;;;;5008300;28;20058;-67
2022/05/22 09:56:03;;;;;;;5.90;0.93;;;;;;;;;;5003061;28;20058;-67
2022/05/22 09:58:39;;;;;;;2.90;1.23;;;;;;;;;;5007914;28;20065;-65
2022/05/22 10:01:11;;;;;;;5.22;1.70;;;;;;;;;;5002423;28;20057;-65
2022/05/22 10:03:42;;;;;;;10.18;1.55;;;;;;;;;;5026878;28;20055;-66
2022/05/22 10:06:15;;;;;;;5.13;1.30;;;;;;;;;;5025137;28;20045;-67
2022/05/22 10:08:46;;;;;;;7.38;1.40;;;;;;;;;;5024822;28;20054;-65
2022/05/22 10:11:16;;;;;;;5.18;1.08;;;;;;;;;;5027712;28;20076;-66
2022/05/22 10:13:53;;;;;;;4.53;1.30;;;;;;;;;;5020181;28;20057;-67
2022/05/22 10:16:29;;;;;;;3.92;1.20;;;;;;;;;;5027282;28;20068;-64
2022/05/22 10:19:04;;;;;;;17.42;1.80;;;;;;;;;;5007040;28;20152;-64
2022/05/22 10:21:34;;;;;;;2.75;1.00;;;;;;;;;;5007196;28;20053;-65
2022/05/22 13:02:53;;;;;;;9.90;3.13;;;;;;;;;;5061695;23;20190;-74
2022/05/22 13:05:30;;;;;;;12.05;3.20;;;;;;;;;;5010634;28;20062;-72
2022/05/22 13:07:59;;;;;;;12.50;3.72;;;;;;;;;;5010178;28;20057;-66
2022/05/22 13:10:30;;;;;;;10.10;3.08;;;;;;;;;;5038370;28;20059;-68
2022/05/22 13:13:00;;;;;;;9.15;2.92;;;;;;;;;;5048310;28;20052;-69
2022/05/22 13:15:28;;;;;;;7.35;2.78;;;;;;;;;;5051300;28;20070;-68
2022/05/22 13:18:11;;;;;;;27.45;2.63;;;;;;;;;;5032832;28;20080;-68
2022/05/22 13:20:49;;;;;;;7.20;2.55;;;;;;;;;;5025438;28;20049;-70
2022/05/22 13:23:26;;;;;;;7.18;2.28;;;;;;;;;;5017797;28;20045;-72
2022/05/22 13:25:55;;;;;;;9.98;2.90;;;;;;;;;;5027843;28;20056;-70
2022/05/22 13:28:25;;;;;;;7.30;2.55;;;;;;;;;;5022144;28;20049;-66
2022/05/22 13:30:53;;;;;;;14.27;2.78;;;;;;;;;;5044301;28;20061;-70
2022/05/22 13:33:22;;;;;;;8.77;2.28;;;;;;;;;;5038753;28;20060;-73
2022/05/22 13:35:52;;;;;;;5.25;2.22;;;;;;;;;;5025953;28;20055;-68
2022/05/22 13:38:18;;;;;;;9.23;2.53;;;;;;;;;;5023910;28;20049;-64
2022/05/22 13:40:49;;;;;;;9.80;2.72;;;;;;;;;;5030519;28;20057;-67
2022/05/22 13:43:46;;;;;;;10.95;2.70;;;;;;;;;;5020336;28;20050;-70
2022/05/22 13:46:43;;;;;;;6.97;2.33;;;;;;;;;;5019527;28;20118;-73
2022/05/22 13:49:27;;;;;;;6.80;2.60;;;;;;;;;;4963132;28;20054;-71
2022/05/22 13:54:49;;;;;;;11.38;2.80;;;;;;;;;;5038890;28;20056;-67
2022/05/22 13:57:18;;;;;;;39.20;3.58;;;;;;;;;;5050525;28;20143;-64
2022/05/22 13:59:49;;;;;;;13.02;3.50;;;;;;;;;;5033494;28;20067;-64
2022/05/22 14:02:19;;;;;;;8.20;2.42;;;;;;;;;;5011634;28;20106;-68
2022/05/22 14:04:48;;;;;;;7.35;2.85;;;;;;;;;;5030574;28;20052;-63
2022/05/22 14:07:22;;;;;;;11.93;2.90;;;;;;;;;;5031025;28;20069;-72
2022/05/22 14:09:51;;;;;;;9.48;2.85;;;;;;;;;;5029683;28;20057;-71
2022/05/22 14:12:24;;;;;;;11.95;2.90;;;;;;;;;;5043237;28;20049;-68
2022/05/22 14:14:51;;;;;;;7.70;2.63;;;;;;;;;;5029498;28;20045;-68
2022/05/22 14:17:28;;;;;;;14.55;2.80;;;;;;;;;;5034953;28;20088;-67
2022/05/22 14:20:03;;;;;;;13.50;3.20;;;;;;;;;;5049564;28;20056;-66
2022/05/22 14:22:30;;;;;;;10.80;3.40;;;;;;;;;;5028517;28;20061;-63
2022/05/22 14:24:58;;;;;;;8.32;2.67;;;;;;;;;;5046889;28;20057;-68
2022/05/22 14:27:29;;;;;;;5.90;2.42;;;;;;;;;;5028536;28;20057;-69
2022/05/22 14:30:06;;;;;;;9.05;2.38;;;;;;;;;;5049061;28;20061;-67
2022/05/22 14:32:33;;;;;;;13.50;3.10;;;;;;;;;;5045969;28;20055;-67
2022/05/22 14:35:01;;;;;;;10.15;2.88;;;;;;;;;;5049078;28;20045;-67
2022/05/22 14:37:28;;;;;;;9.90;2.60;;;;;;;;;;5050933;28;20330;-68
2022/05/22 14:39:55;;;;;;;12.15;2.35;;;;;;;;;;5041563;28;20133;-68
2022/05/22 14:42:23;;;;;;;9.07;2.83;;;;;;;;;;5051827;28;20059;-67
2022/05/22 14:44:50;;;;;;;9.75;2.97;;;;;;;;;;5043418;28;20055;-67
2022/05/22 14:47:24;;;;;;;6.80;2.28;;;;;;;;;;5032022;28;20216;-67
2022/05/22 14:49:52;;;;;;;13.93;2.08;;;;;;;;;;5027945;28;20076;-68
2022/05/22 14:52:19;;;;;;;;;;;;;;;;;;5050438;28;20053;-68
2022/05/22 14:54:49;;;;;;;7.22;1.83;;;;;;;;;;5048017;28;19947;-68
2022/05/22 14:57:17;;;;;;;4.90;1.77;;;;;;;;;;5025848;28;20095;-66
2022/05/22 14:59:46;;;;;;;11.40;2.17;;;;;;;;;;5029709;28;20079;-67
2022/05/22 15:02:15;;;;;;;8.43;2.17;;;;;;;;;;5034242;28;20056;-68
2022/05/22 15:04:42;;;;;;;8.05;2.63;;;;;;;;;;5050007;28;20060;-68
2022/05/22 15:07:19;;;;;;;6.30;1.83;;;;;;;;;;5031861;28;20072;-68
2022/05/22 15:09:53;;;;;;;7.50;1.92;;;;;;;;;;5035627;28;20057;-67
2022/05/22 15:12:24;;;;;;;5.90;1.85;;;;;;;;;;5030191;28;20052;-67
2022/05/22 15:14:53;;;;;;;8.40;2.08;;;;;;;;;;5033535;28;20095;-66
2022/05/22 15:17:22;;;;;;;6.53;1.88;;;;;;;;;;5024541;28;20087;-65
2022/05/22 15:19:53;;;;;;;7.03;1.65;;;;;;;;;;5024719;28;20100;-66
2022/05/22 15:25:34;;;;;;;8.77;1.88;;;;;;;;;;5003965;28;20056;-67
2022/05/22 15:28:04;;;;;;;8.38;2.50;;;;;;;;;;5025761;28;20061;-66
2022/05/22 15:30:31;;;;;;;6.82;2.25;;;;;;;;;;5029646;28;20057;-67
2022/05/22 15:33:02;;;;;;;18.23;2.45;;;;;;;;;;5028096;28;20081;-67
2022/05/22 15:35:29;;;;;;;10.45;1.95;;;;;;;;;;5040569;28;20049;-66
2022/05/22 15:37:56;;;;;;;9.18;2.47;;;;;;;;;;5029976;28;20049;-66
2022/05/22 15:40:24;;;;;;;10.07;2.05;;;;;;;;;;5026466;28;20064;-66
2022/05/22 15:43:06;;;;;;;12.23;1.92;;;;;;;;;;5035627;28;20060;-65
2022/05/22 15:45:33;;;;;;;7.10;2.33;;;;;;;;;;5020318;28;20128;-67
2022/05/22 15:50:44;;;;;;;8.60;2.53;;;;;;;;;;5049815;28;20041;-67
2022/05/22 15:51:03;;;;;;;11.80;2.10;;;;;;;;;;5037569;28;20053;-68
2022/05/22 15:53:29;;;;;;;8.07;1.63;;;;;;;;;;5042646;28;20168;-67
2022/05/22 15:55:56;;;;;;;10.27;1.73;;;;;;;;;;5025814;28;20057;-66
2022/05/22 15:58:24;;;;;;;7.07;1.65;;;;;;;;;;5035232;28;20057;-65
2022/05/22 16:00:50;;;;;;;7.88;1.67;;;;;;;;;;5044255;28;20052;-68
2022/05/22 16:03:17;;;;;;;4.05;1.90;;;;;;;;;;5008393;28;20058;-68
2022/05/22 16:05:44;;;;;;;7.95;1.90;;;;;;;;;;5002189;28;20073;-66
2022/05/22 16:08:10;;;;;;;7.97;2.28;;;;;;;;;;5013821;28;20077;-68
2022/05/22 16:10:37;;;;;;;8.00;1.75;;;;;;;;;;4995827;28;20056;-68
2022/05/22 16:13:04;;;;;;;5.25;1.70;;;;;;;;;;5017478;28;20053;-68
2022/05/22 16:15:31;;;;;;;7.22;3.22;;;;;;;;;;5015948;28;20085;-67
2022/05/22 16:18:00;;;;;;;9.15;2.15;;;;;;;;;;5001727;28;20065;-67
2022/05/22 16:20:27;;;;;;;10.52;1.88;;;;;;;;;;5015902;28;20050;-66
2022/05/22 16:22:54;;;;;;;10.52;2.10;;;;;;;;;;5003289;28;20041;-65
2022/05/22 16:25:20;;;;;;;10.05;2.97;;;;;;;;;;5012626;28;20138;-67
2022/05/22 16:27:47;;;;;;;14.02;2.33;;;;;;;;;;5004885;28;20049;-67
2022/05/22 16:30:14;;;;;;;8.05;2.25;;;;;;;;;;5003118;28;20057;-66
2022/05/22 16:32:43;;;;;;;5.80;2.13;;;;;;;;;;5002715;28;20054;-65
2022/05/22 16:35:10;;;;;;;5.68;2.40;;;;;;;;;;4990572;28;20056;-66
2022/05/22 16:37:37;;;;;;;5.82;2.00;;;;;;;;;;5024731;28;20057;-66
2022/05/22 16:40:05;;;;;;;8.32;2.60;;;;;;;;;;4992037;28;20061;-66
2022/05/22 16:42:31;;;;;;;7.30;2.45;;;;;;;;;;5000355;28;20088;-66
2022/05/22 16:44:57;;;;;;;10.18;2.17;;;;;;;;;;4992136;28;20042;-66
2022/05/22 16:53:04;;;;;;;6.18;1.85;;;;;;;;;;5002679;28;20057;-65
2022/05/22 16:55:36;;;;;;;6.03;2.00;;;;;;;;;;4997213;28;20053;-66
2022/05/22 16:58:07;;;;;;;6.90;1.98;;;;;;;;;;5009422;28;20053;-65
2022/05/22 17:00:34;;;;;;;6.53;2.00;;;;;;;;;;4994046;28;20049;-67
2022/05/22 17:03:01;;;;;;;6.90;2.40;;;;;;;;;;5014571;28;20132;-66
2022/05/22 17:05:31;;;;;;;8.40;2.22;;;;;;;;;;5025958;28;20037;-67
2022/05/22 17:07:58;;;;;;;7.10;2.08;;;;;;;;;;5014721;28;20053;-66
2022/05/22 17:10:25;;;;;;;5.88;2.03;;;;;;;;;;5024453;28;20096;-66
2022/05/22 17:12:51;;;;;;;5.43;1.60;;;;;;;;;;5016926;28;20125;-67
2022/05/22 17:15:18;;;;;;;7.65;2.35;;;;;;;;;;5026758;28;20053;-67
2022/05/22 17:17:44;;;;;;;8.35;2.50;;;;;;;;;;5015493;28;20069;-68
2022/05/22 17:20:11;;;;;;;5.72;1.77;;;;;;;;;;5023151;28;20058;-66
2022/05/22 17:22:40;;;;;;;7.55;2.38;;;;;;;;;;5022027;28;20080;-67
2022/05/22 17:25:08;;;;;;;5.85;1.88;;;;;;;;;;5020106;28;20063;-68
2022/05/22 17:27:39;;;;;;;5.28;1.85;;;;;;;;;;5025834;28;20054;-67
2022/05/22 17:30:07;;;;;;;4.18;1.70;;;;;;;;;;5013524;28;20063;-65
2022/05/22 17:32:33;;;;;;;6.63;1.70;;;;;;;;;;5025050;28;20068;-65
2022/05/22 17:35:00;;;;;;;4.72;1.70;;;;;;;;;;5013984;28;20053;-67
2022/05/22 17:37:28;;;;;;;11.68;2.30;;;;;;;;;;5025751;28;20080;-66
2022/05/22 17:39:57;;;;;;;8.68;2.13;;;;;;;;;;5014471;28;20061;-67
2022/05/22 17:42:27;;;;;;;11.13;3.70;;;;;;;;;;5024360;28;20057;-69
2022/05/22 17:44:54;;;;;;;6.25;1.83;;;;;;;;;;5023860;28;20091;-66
2022/05/22 17:47:22;;;;;;;5.80;1.92;;;;;;;;;;5030822;28;20059;-65
2022/05/22 17:49:48;;;;;;;5.85;2.15;;;;;;;;;;5023461;28;20053;-66
2022/05/22 17:52:16;;;;;;;6.68;2.08;;;;;;;;;;5015986;28;20053;-67
2022/05/22 17:54:42;;;;;;;9.10;2.70;;;;;;;;;;5024666;28;20056;-66
2022/05/22 17:57:11;;;;;;;5.70;2.17;;;;;;;;;;5013877;28;20073;-66